• Join FlightAware (Why Join?)
  • Login
  • US Flag 
12:20PM EDT


 

Airport Tracker/Info


-or-


 

Live Flight TrackerFlight Track Log ✈ DAL930 ✈ 06-Apr-2013 ✈ KLGA - KFLL

Flight Track Log - Related Links

Times and Time Zones

All times are in EDT time to prevent confusion due to time zone crossing. See the DAL930 flight status page for this flight to view local times or setup timezone preferences in your user account.

Time Position Orientation Groundspeed Altitude Reporting Facility
EDT Latitude Longitude Course Direction KTS MPH feet Rate Location/Type
11:51AM 40.8000 -73.8667 360° North 150 173 1,100  Level New York TRACON
11:52AM 40.8500 -73.8667 360° North 214 246 2,900 2,640 Climbing New York TRACON
11:53AM 40.9000 -73.9167 323° Northwest 250 288 6,500 3,420 Climbing New York TRACON
11:54AM 40.8500 -73.9833 225° Southwest 294 338 9,800 2,280 Climbing New York TRACON
11:55AM 40.7667 -74.0167 197° South 339 390 11,100 1,080 Climbing New York TRACON
11:56AM 40.6500 -74.0500 192° South 389 448 12,000 1,440 Climbing New York TRACON
11:57AM 40.5500 -74.0833 194° South 390 449 14,000 1,620 Climbing New York TRACON
11:59AM 40.3361 -74.1556 194° South 411 473 17,100 1,260 Climbing New York Center
12:00PM 40.2161 -74.1903 192° South 416 479 18,000 900 Climbing New York Center
12:01PM 40.1258 -74.2183 193° South 416 479 19,000 1,140 Climbing New York Center
12:02PM 39.9992 -74.2664 196° South 421 484 20,300 1,560 Climbing New York Center
12:02PM 39.9544 -74.3006 210° Southwest 423 487 21,100 1,260 Climbing Washington Center
12:04PM 39.8594 -74.3914 216° Southwest 404 465 22,000 1,080 Climbing Washington Center
12:04PM 39.7711 -74.4956 222° Southwest 428 493 23,300 1,200 Climbing Washington Center
12:06PM 39.6886 -74.6072 226° Southwest 433 498 24,500 1,500 Climbing Washington Center
12:07PM 39.6042 -74.7217 226° Southwest 433 498 26,400 1,860 Climbing Washington Center
12:08PM 39.5214 -74.8275 225° Southwest 433 498 28,300 1,500 Climbing Washington Center
12:09PM 39.4389 -74.9358 225° Southwest 428 493 29,400 1,200 Climbing Washington Center
12:10PM 39.3558 -75.0439 225° Southwest 428 493 30,800 1,200 Climbing Washington Center
12:11PM 39.2606 -75.1333 216° Southwest 433 498 31,800 600 Climbing Washington Center
12:12PM 39.1461 -75.1794 197° South 421 484 32,000 60 Climbing Washington Center
12:13PM 39.0294 -75.2308 199° South 432 497 32,000  Level Washington Center
12:14PM 38.9128 -75.2742 196° South 437 503 32,000  Level Washington Center
12:15PM 38.7983 -75.3225 198° South 442 509 32,000  Level Washington Center
12:16PM 38.6839 -75.3736 199° South 442 509 32,000  Level Washington Center
12:16PM 38.5669 -75.4217 198° South 442 509 32,000 300 Level Washington Center
12:17PM 38.4544 -75.4803 202° Southwest 442 509 32,600 600 Climbing Washington Center
12:19PM 38.3461 -75.5467 206° Southwest 442 509 33,300 660 Climbing Washington Center
12:20PM 38.2378 -75.6156 207° Southwest 436 502 34,000 300 Climbing Washington Center
12:21PM 38.1380 -75.6771 206° Southwest  Level FlightAware Approximate
12:21PM 38.1292 -75.6814 206° Southwest 436 502 34,000  Level Washington Center
12:22PM 38.0208 -75.7500 207° Southwest 436 502 34,000  Level Washington Center
12:23PM 37.9103 -75.8128 204° Southwest 441 507 34,000  Level Washington Center
12:24PM 37.7975 -75.8861 207° Southwest 441 507 34,000  Level Washington Center
12:25PM 37.6889 -75.9514 205° Southwest 441 507 34,000  Level Washington Center
12:26PM 37.5758 -76.0136 204° Southwest 448 516 34,000  Level Washington Center
12:27PM 37.4611 -76.0681 201° Southwest 448 516 34,000  Level Washington Center
12:28PM 37.3461 -76.1169 199° South 443 510 34,000  Level Washington Center
12:29PM 37.2333 -76.1711 201° Southwest 443 510 34,000  Level Washington Center
12:30PM 37.1161 -76.2247 200° South 443 510 34,000  Level Washington Center
12:31PM 36.9992 -76.2758 199° South 449 517 34,000  Level Washington Center
12:32PM 36.8839 -76.3294 200° South 449 517 34,000  Level Washington Center
12:33PM 36.7772 -76.3725 198° South 449 517 34,000  Level Washington Center
12:34PM 36.6600 -76.4256 200° South 449 517 34,000  Level Washington Center
12:35PM 36.5450 -76.4761 199° South 449 517 34,000  Level Washington Center
12:36PM 36.4278 -76.5264 199° South 449 517 34,000  Level Washington Center
12:37PM 36.3083 -76.5817 200° South 449 517 34,000  Level Washington Center
12:38PM 36.1869 -76.6342 199° South 449 517 34,000  Level Washington Center
12:39PM 36.0656 -76.6867 199° South 454 522 34,000  Level Washington Center
12:40PM 35.9439 -76.7389 199° South 454 522 34,000  Level Washington Center
12:41PM 35.8203 -76.7908 199° South 465 535 34,000  Level Washington Center
12:42PM 35.6967 -76.8453 200° South 471 542 34,000  Level Washington Center
12:43PM 35.5647 -76.9044 200° South 466 536 34,000  Level Washington Center
12:43PM 35.4408 -76.9561 199° South 466 536 34,000  Level Washington Center
12:45PM 35.3172 -77.0125 200° South 466 536 34,000  Level Washington Center
12:46PM 35.1978 -77.0636 199° South 466 536 34,000  Level Washington Center
12:47PM 35.0739 -77.1147 199° South 466 536 34,000  Level Washington Center
12:48PM 34.9500 -77.1681 199° South 466 536 34,000  Level Washington Center
12:49PM 34.8264 -77.2239 200° South 473 544 34,000  Level Washington Center
12:50PM 34.7025 -77.2772 199° South 473 544 34,000  Level Washington Center
12:51PM 34.5764 -77.3300 199° South 473 544 34,000  Level Washington Center
12:52PM 34.4506 -77.3828 199° South 473 544 34,000  Level Washington Center
12:53PM 34.3286 -77.4353 200° South 473 544 34,000  Level Washington Center
12:55PM 34.0261 -77.5608 199° South 475 547 34,000  Level Jacksonville Center
12:56PM 33.9031 -77.6108 199° South 480 552 34,000  Level Jacksonville Center
12:57PM 33.7783 -77.6658 200° South 480 552 34,000  Level Jacksonville Center
12:58PM 33.6386 -77.7214 198° South 480 552 34,000  Level Jacksonville Center
12:59PM 33.5114 -77.7711 198° South 480 552 34,000  Level Jacksonville Center
01:00PM 33.3861 -77.8256 200° South 480 552 34,000  Level Jacksonville Center
01:01PM 33.2589 -77.8753 198° South 480 552 34,000  Level Jacksonville Center
01:02PM 33.1336 -77.9269 199° South 480 552 34,000  Level Jacksonville Center
01:03PM 33.0061 -77.9783 199° South 480 552 34,000  Level Jacksonville Center
01:04PM 32.8789 -78.0325 200° South 480 552 34,000  Level Jacksonville Center
01:05PM 32.7658 -78.0756 198° South 480 552 34,000  Level Jacksonville Center
01:06PM 32.6383 -78.1267 199° South 480 552 34,000  Level Jacksonville Center
01:07PM 32.5128 -78.1753 198° South 480 552 34,000  Level Jacksonville Center
01:08PM 32.3875 -78.2283 200° South 480 552 34,000  Level Jacksonville Center
01:09PM 32.2458 -78.2897 200° South 485 558 34,000  Level Jacksonville Center
01:10PM 32.1264 -78.3375 199° South 478 550 34,000  Level Jacksonville Center
01:11PM 32.0028 -78.3875 199° South 478 550 34,000  Level Jacksonville Center
01:12PM 31.8772 -78.4353 198° South 478 550 34,000  Level Jacksonville Center
01:13PM 31.7539 -78.4853 199° South 472 543 34,000  Level Jacksonville Center
01:14PM 31.6281 -78.5303 197° South 474 545 34,000  Level Jacksonville Center
01:15PM 31.5044 -78.5800 199° South 480 552 34,000  Level Jacksonville Center
01:16PM 31.3789 -78.6344 200° South 480 552 34,000  Level Jacksonville Center
01:17PM 31.2553 -78.6814 198° South 474 545 34,000  Level Jacksonville Center
01:18PM 31.1336 -78.7281 198° South 474 545 34,000  Level Jacksonville Center
01:19PM 31.0081 -78.7772 199° South 479 551 34,000  Level Jacksonville Center
01:20PM 30.8842 -78.8236 198° South 485 558 34,000  Level Jacksonville Center
01:21PM 30.7606 -78.8725 199° South 463 533 34,000  Level Jacksonville Center
01:22PM 30.6408 -78.9186 198° South 463 533 34,000  Level Jacksonville Center
01:23PM 30.5150 -78.9647 198° South 470 541 34,000  Level Jacksonville Center
01:23PM 30.4750 -78.9828 201° Southwest 478 550 34,000  Level Miami Center
01:24PM 30.3494 -79.0211 195° South 483 556 34,000  Level Miami Center
01:25PM 30.2217 -79.0544 193° South 478 550 34,000  Level Miami Center
01:26PM 30.0919 -79.0903 193° South 472 543 34,000  Level Miami Center
01:27PM 29.9683 -79.1283 195° South 472 543 34,000  Level Miami Center
01:28PM 29.8386 -79.1567 191° South 472 543 34,000  Level Miami Center
01:29PM 29.7150 -79.1925 194° South 472 543 34,000  Level Miami Center
01:30PM 29.5833 -79.2181 190° South 472 543 34,000  Level Miami Center
01:31PM 29.4636 -79.2586 196° South 466 536 34,000  Level Miami Center
01:32PM 29.3317 -79.2867 191° South 471 542 34,000  Level Miami Center
01:33PM 29.2019 -79.3122 190° South 471 542 34,000  Level Miami Center
01:34PM 29.0783 -79.3497 195° South 471 542 34,000  Level Miami Center
01:35PM 28.9525 -79.3803 192° South 471 542 34,000  Level Miami Center
01:36PM 28.8247 -79.4128 193° South 471 542 34,000  Level Miami Center
01:37PM 28.6989 -79.4431 192° South 471 542 34,000  Level Miami Center
01:38PM 28.5733 -79.4708 191° South 466 536 34,000  Level Miami Center
01:39PM 28.4475 -79.5033 193° South 466 536 34,000  Level Miami Center
01:40PM 28.3217 -79.5358 193° South 471 542 34,000  Level Miami Center
01:41PM 28.1958 -79.5681 193° South 471 542 34,000 -360 Level Miami Center
01:42PM 28.0700 -79.5956 191° South 471 542 33,300 -1,800 Descending Miami Center
01:43PM 27.9461 -79.6281 193° South 466 536 30,400 -3,240 Descending Miami Center
01:44PM 27.8183 -79.6578 192° South 466 536 26,900 -2,940 Descending Miami Center
01:45PM 27.6967 -79.6875 192° South 464 534 24,600 -1,500 Descending Miami Center
01:46PM 27.5581 -79.7194 192° South 455 524 24,000 -480 Descending Miami Center
01:47PM 27.4325 -79.7419 189° South 455 524 23,700 -1,200 Descending Miami Center
01:48PM 27.3075 -79.7319 176° South 455 524 21,600 -2,340 Descending Miami Center
01:49PM 27.1989 -79.7244 176° South 444 511 19,100 -2,340 Descending Miami Center
01:50PM 27.0803 -79.7122 175° South 439 505 17,000 -2,400 Descending Miami Center
01:51PM 26.9592 -79.7022 176° South 413 475 14,400 -1,500 Descending Miami Center
01:52PM 26.8467 -79.6925 176° South 404 465 14,000 -300 Descending Miami Center
01:53PM 26.7464 -79.6900 179° South 404 465 13,900 -1,200 Descending Miami Center
01:54PM 26.6369 -79.7364 201° Southwest 390 449 11,700 -2,160 Descending Miami Center
01:55PM 26.5525 -79.7783 204° Southwest 376 433 9,600 -1,860 Descending Miami Center
01:56PM 26.4514 -79.8244 202° Southwest 362 417 8,000 -960 Descending Miami Center
01:57PM 26.4028 -79.8511 206° Southwest 298 343 8,000  Level Miami Center
01:57PM 26.3839 -79.8578 198° South 323 372 8,000 -1,440 Level Miami Center
01:58PM 26.3242 -79.9142 220° Southwest 273 314 6,300 -1,020 Descending Miami Center
01:59PM 26.2667 -79.9681 220° Southwest 288 331 6,000 -240 Descending Miami Center
02:00PM 26.2047 -80.0339 224° Southwest 276 318 5,900  Descending Miami Center
02:01PM 26.1725 -80.0700 225° Southwest 213 245 6,000 60 Climbing Miami Center
02:01PM 26.1681 -80.0836 250° West 247 284 6,000 -120 Level Miami Center
02:02PM 26.1478 -80.1478 251° West 215 247 5,900 -780 Descending Miami Center
02:03PM 26.1486 -80.2081 271° West 207 238 4,600 -1,020 Descending Miami Center
02:04PM 26.1447 -80.2775 266° West 207 238 4,000 -300 Descending Miami Center
02:05PM 26.1517 -80.3447 277° West 214 246 4,000  Level Miami Center
02:06PM 26.1458 -80.4094 264° West 212 244 4,000  Level Miami Center
02:07PM 26.1133 -80.4569 233° Southwest 205 236 4,000 -60 Level Miami Center
02:09PM 26.0725 -80.4233 144° Southeast 190 219 3,900 -300 Descending Miami Center
02:09PM 26.0736 -80.3725 89° East 200 230 3,500 -720 Descending Miami Center
02:10PM 26.0772 -80.3056 87° East 184 212 2,500 -900 Descending Miami Center
02:12PM 26.0744 -80.2500 93° East 135 155 1,500 -840 Descending Miami Center
02:13PM 26.0753 -80.2106 89° East 139 160 800 -780 Descending Miami Center